createdAt,value
2023-03-01T00:01:04.234Z,0.95
2023-03-01T00:03:30.987Z,0.92
2023-03-01T00:05:57.365Z,0.91
2023-03-01T00:08:23.771Z,0.90
2023-03-01T00:10:50.193Z,0.90
2023-03-01T00:13:16.631Z,0.91
2023-03-01T00:15:42.954Z,0.91
2023-03-01T00:18:09.335Z,0.88
2023-03-01T00:20:35.729Z,0.88
2023-03-01T00:23:02.166Z,0.87
2023-03-01T00:25:28.489Z,0.85
2023-03-01T00:27:54.849Z,0.82
2023-03-01T00:30:21.323Z,0.80
2023-03-01T00:32:47.644Z,0.80
2023-03-01T00:35:14.046Z,0.80
2023-03-01T00:37:41.550Z,0.79
2023-03-01T00:40:08.909Z,0.79
2023-03-01T00:42:35.229Z,0.79
2023-03-01T00:45:01.556Z,0.77
2023-03-01T00:47:30.469Z,0.76
2023-03-01T00:49:56.849Z,0.76
2023-03-01T00:52:23.204Z,0.76
2023-03-01T00:54:49.659Z,0.78
2023-03-01T00:57:15.978Z,0.82
2023-03-01T00:59:42.316Z,0.86
2023-03-01T01:02:08.651Z,0.92
2023-03-01T01:04:35.101Z,0.98
2023-03-01T01:07:01.483Z,1.01
2023-03-01T01:09:27.845Z,1.06
2023-03-01T01:11:54.174Z,1.10
2023-03-01T01:14:20.972Z,1.15
2023-03-01T01:16:47.420Z,1.17
2023-03-01T01:19:14.376Z,1.20
2023-03-01T01:21:43.894Z,1.23
2023-03-01T01:24:10.452Z,1.24
2023-03-01T01:26:37.082Z,1.25
2023-03-01T01:29:05.363Z,1.25
2023-03-01T01:31:32.970Z,1.26
2023-03-01T01:34:00.937Z,1.27
2023-03-01T01:36:28.202Z,1.27
2023-03-01T01:38:54.836Z,1.27
2023-03-01T01:41:22.493Z,1.27
2023-03-01T01:44:12.272Z,1.27
2023-03-01T01:46:41.553Z,1.27
2023-03-01T01:49:25.831Z,1.28
2023-03-01T01:51:58.583Z,1.28
2023-03-01T01:54:31.593Z,1.27
2023-03-01T01:57:04.376Z,1.27
2023-03-01T01:59:33.094Z,1.26
2023-03-01T02:02:04.157Z,1.26
2023-03-01T02:04:33.040Z,1.26
2023-03-01T02:07:07.516Z,1.24
2023-03-01T02:09:35.162Z,1.24
2023-03-01T02:12:02.907Z,1.23
2023-03-01T02:14:29.227Z,1.23
2023-03-01T02:16:55.881Z,1.21
2023-03-01T02:19:59.686Z,1.22
2023-03-01T02:22:32.357Z,1.22
2023-03-01T02:25:12.654Z,1.20
2023-03-01T02:27:51.556Z,1.20
2023-03-01T02:30:20.161Z,1.20
2023-03-01T02:32:47.208Z,1.19
2023-03-01T02:35:16.871Z,1.19
2023-03-01T02:37:45.044Z,1.19
2023-03-01T02:40:18.463Z,1.18
2023-03-01T02:42:56.871Z,1.18
2023-03-01T02:45:24.141Z,1.18
2023-03-01T02:47:50.623Z,1.17
2023-03-01T02:50:36.017Z,1.16
2023-03-01T02:53:17.586Z,1.17
2023-03-01T02:55:44.293Z,1.16
2023-03-01T02:58:11.060Z,1.15
2023-03-01T03:00:47.714Z,1.13
2023-03-01T03:03:16.048Z,1.13
2023-03-01T03:05:42.680Z,1.13
2023-03-01T03:08:09.686Z,1.12
2023-03-01T03:10:41.772Z,1.12
2023-03-01T03:13:11.537Z,1.12
2023-03-01T03:15:39.406Z,1.12
2023-03-01T03:18:09.082Z,1.11
2023-03-01T03:20:35.704Z,1.10
2023-03-01T03:23:02.200Z,1.10
2023-03-01T03:25:30.228Z,1.10
2023-03-01T03:27:57.970Z,1.08
2023-03-01T03:30:32.405Z,1.09
2023-03-01T03:33:00.408Z,1.08
2023-03-01T03:35:33.364Z,1.09
2023-03-01T03:38:02.620Z,1.08
2023-03-01T03:40:40.329Z,1.06
2023-03-01T03:43:09.493Z,1.06
2023-03-01T03:45:36.699Z,1.06
2023-03-01T03:48:05.747Z,1.06
2023-03-01T03:50:32.363Z,1.06
2023-03-01T03:53:00.880Z,1.06
2023-03-01T03:55:31.314Z,1.05
2023-03-01T03:58:02.894Z,1.06
2023-03-01T04:00:29.909Z,1.06
2023-03-01T04:02:57.410Z,1.06
2023-03-01T04:05:24.244Z,1.06
2023-03-01T04:08:01.754Z,1.06
2023-03-01T04:10:30.697Z,1.08
2023-03-01T04:12:57.878Z,1.07
2023-03-01T04:15:25.475Z,1.07
2023-03-01T04:17:54.338Z,1.08
2023-03-01T04:20:27.023Z,1.08
2023-03-01T04:23:14.268Z,1.08
2023-03-01T04:25:55.612Z,1.09
2023-03-01T04:28:25.505Z,1.07
2023-03-01T04:30:53.384Z,1.07
2023-03-01T04:33:20.965Z,1.06
2023-03-01T04:35:50.328Z,1.07
2023-03-01T04:38:18.645Z,1.05
2023-03-01T04:40:45.229Z,1.05
2023-03-01T04:43:15.148Z,1.04
2023-03-01T04:45:41.514Z,1.04
2023-03-01T04:48:08.009Z,1.03
2023-03-01T04:50:34.496Z,1.00
2023-03-01T04:53:00.881Z,1.00
2023-03-01T04:55:28.599Z,0.97
2023-03-01T04:57:55.647Z,0.97
2023-03-01T05:00:23.128Z,0.95
2023-03-01T05:03:01.410Z,0.93
2023-03-01T05:05:31.818Z,0.92
2023-03-01T05:08:00.816Z,0.91
2023-03-01T05:10:30.098Z,0.89
2023-03-01T05:12:58.305Z,0.85
2023-03-01T05:15:28.999Z,0.85
2023-03-01T05:17:59.493Z,0.84
2023-03-01T05:20:27.821Z,0.83
2023-03-01T05:22:57.706Z,0.81
2023-03-01T05:25:24.067Z,0.80
2023-03-01T05:27:50.428Z,0.78
2023-03-01T05:30:18.826Z,0.77
2023-03-01T05:32:47.993Z,0.76
2023-03-01T05:35:16.419Z,0.77
2023-03-01T05:37:48.875Z,0.74
2023-03-01T05:40:21.819Z,0.73
2023-03-01T05:42:55.275Z,0.71
2023-03-01T05:45:24.083Z,0.70
2023-03-01T05:47:51.126Z,0.67
2023-03-01T05:50:22.885Z,0.65
2023-03-01T05:53:08.604Z,0.64
2023-03-01T05:55:36.194Z,0.63
2023-03-01T05:58:04.604Z,0.61
2023-03-01T06:00:32.032Z,0.59
2023-03-01T06:03:00.000Z,0.60
2023-03-01T06:05:27.390Z,0.58
2023-03-01T06:07:53.990Z,0.59
2023-03-01T06:10:21.814Z,0.60
2023-03-01T06:12:48.981Z,0.61
2023-03-01T06:15:17.147Z,0.64
2023-03-01T06:17:45.297Z,0.66
2023-03-01T06:20:17.868Z,0.69
2023-03-01T06:22:45.262Z,0.71
2023-03-01T06:25:13.504Z,0.73
2023-03-01T06:27:40.573Z,0.75
2023-03-01T06:30:08.772Z,0.77
2023-03-01T06:32:35.125Z,0.77
2023-03-01T06:35:01.531Z,0.79
2023-03-01T06:37:27.912Z,0.82
2023-03-01T06:39:54.287Z,0.81
2023-03-01T06:42:20.720Z,0.83
2023-03-01T06:44:47.232Z,0.85
2023-03-01T06:47:13.877Z,0.87
2023-03-01T06:49:40.405Z,0.88
2023-03-01T06:52:06.713Z,0.90
2023-03-01T06:54:33.054Z,0.93
2023-03-01T06:56:59.438Z,0.94
2023-03-01T06:59:25.820Z,0.98
2023-03-01T07:01:52.213Z,1.02
2023-03-01T07:04:18.636Z,1.06
2023-03-01T07:06:44.964Z,1.10
2023-03-01T07:09:11.290Z,1.16
2023-03-01T07:11:38.030Z,1.20
2023-03-01T07:14:04.440Z,1.24
2023-03-01T07:16:31.112Z,1.30
2023-03-01T07:18:59.690Z,1.35
2023-03-01T07:21:26.206Z,1.41
2023-03-01T07:23:52.625Z,1.46
2023-03-01T07:26:18.945Z,1.52
2023-03-01T07:28:45.269Z,1.58
2023-03-01T07:31:11.749Z,1.66
2023-03-01T07:33:38.102Z,1.70
2023-03-01T07:36:05.356Z,1.77
2023-03-01T07:38:32.238Z,1.84
2023-03-01T07:41:01.186Z,1.90
2023-03-01T07:43:28.940Z,1.96
2023-03-01T07:45:55.455Z,2.02
2023-03-01T07:48:21.826Z,2.09
2023-03-01T07:50:48.335Z,2.15
2023-03-01T07:53:14.664Z,2.22
2023-03-01T07:55:40.998Z,2.29
2023-03-01T07:58:07.360Z,2.35
2023-03-01T08:00:33.703Z,2.41
2023-03-01T08:03:01.855Z,2.49
2023-03-01T08:05:29.285Z,2.56
2023-03-01T08:07:55.749Z,2.63
2023-03-01T08:10:22.169Z,2.72
2023-03-01T08:12:48.502Z,2.77
2023-03-01T08:15:14.939Z,2.85
2023-03-01T08:17:41.304Z,2.92
2023-03-01T08:20:08.593Z,2.98
2023-03-01T08:22:34.906Z,3.05
2023-03-01T08:25:01.690Z,3.11
2023-03-01T08:27:28.015Z,3.19
2023-03-01T08:29:54.406Z,3.23
2023-03-01T08:32:20.842Z,3.32
2023-03-01T08:34:48.469Z,3.39
2023-03-01T08:37:14.803Z,3.45
2023-03-01T08:39:41.168Z,3.51
2023-03-01T08:42:07.582Z,3.57
2023-03-01T08:44:34.595Z,3.63
2023-03-01T08:47:00.990Z,3.69
2023-03-01T08:49:27.665Z,3.74
2023-03-01T08:51:54.296Z,3.79
2023-03-01T08:54:22.496Z,3.84
2023-03-01T08:56:49.612Z,3.90
2023-03-01T08:59:18.049Z,3.93
2023-03-01T09:01:44.586Z,4.00
2023-03-01T09:04:12.271Z,4.04
2023-03-01T09:06:38.763Z,4.09
2023-03-01T09:09:06.738Z,4.14
2023-03-01T09:11:34.082Z,4.20
2023-03-01T09:14:00.704Z,4.25
2023-03-01T09:16:27.290Z,4.29
2023-03-01T09:18:55.185Z,4.35
2023-03-01T09:21:38.727Z,4.39
2023-03-01T09:24:07.998Z,4.46
2023-03-01T09:26:34.417Z,4.51
2023-03-01T09:29:00.997Z,4.54
2023-03-01T09:31:27.393Z,4.60
2023-03-01T09:33:54.831Z,4.65
2023-03-01T09:36:24.338Z,4.71
2023-03-01T09:38:53.675Z,4.75
2023-03-01T09:41:39.156Z,4.82
2023-03-01T09:44:35.329Z,4.88
2023-03-01T09:47:03.063Z,4.92
2023-03-01T09:49:33.037Z,4.95
2023-03-01T09:52:08.290Z,4.99
2023-03-01T09:54:34.698Z,5.03
2023-03-01T09:57:30.425Z,5.06
2023-03-01T10:00:34.076Z,5.12
2023-03-01T10:03:19.059Z,5.16
2023-03-01T10:06:00.297Z,5.19
2023-03-01T10:08:37.146Z,5.24
2023-03-01T10:11:05.775Z,5.29
2023-03-01T10:13:53.818Z,5.35
2023-03-01T10:16:47.724Z,5.42
2023-03-01T10:19:24.060Z,5.48
2023-03-01T10:21:51.993Z,5.56
2023-03-01T10:24:21.653Z,5.62
2023-03-01T10:27:01.644Z,5.71
2023-03-01T10:29:38.835Z,5.81
2023-03-01T10:32:09.206Z,5.87
2023-03-01T10:34:37.593Z,5.97
2023-03-01T10:37:14.260Z,6.05
2023-03-01T10:40:01.716Z,6.13
2023-03-01T10:42:34.037Z,6.22
2023-03-01T10:45:31.300Z,6.31
2023-03-01T10:48:29.157Z,6.39
2023-03-01T10:50:58.221Z,6.44
2023-03-01T10:53:33.862Z,6.50
2023-03-01T10:56:07.939Z,6.56
2023-03-01T10:58:36.522Z,6.60
2023-03-01T11:01:25.418Z,6.66
2023-03-01T11:04:07.500Z,6.73
2023-03-01T11:06:35.355Z,6.78
2023-03-01T11:09:15.516Z,6.85
2023-03-01T11:11:42.663Z,6.90
2023-03-01T11:14:27.527Z,6.95
2023-03-01T11:17:06.888Z,7.00
2023-03-01T11:19:33.965Z,7.03
2023-03-01T11:22:21.593Z,7.09
2023-03-01T11:25:03.570Z,7.13
2023-03-01T11:27:40.142Z,7.19
2023-03-01T11:30:29.159Z,7.23
2023-03-01T11:33:09.747Z,7.32
2023-03-01T11:35:47.703Z,7.39
2023-03-01T11:38:24.720Z,7.47
2023-03-01T11:41:00.974Z,7.56
2023-03-01T11:43:36.483Z,7.67
2023-03-01T11:46:33.792Z,7.76
2023-03-01T11:49:18.847Z,7.84
2023-03-01T11:51:51.260Z,7.86
2023-03-01T11:54:29.865Z,7.88
2023-03-01T11:57:11.602Z,7.89
2023-03-01T11:59:56.547Z,7.89
2023-03-01T12:02:44.788Z,7.87
2023-03-01T12:05:25.532Z,7.86
2023-03-01T12:08:25.870Z,7.85
2023-03-01T12:10:52.181Z,7.85
2023-03-01T12:13:41.060Z,7.86
2023-03-01T12:16:36.308Z,7.90
2023-03-01T12:19:23.331Z,7.96
2023-03-01T12:22:10.415Z,8.00
2023-03-01T12:24:55.277Z,8.03
2023-03-01T12:27:27.645Z,8.02
2023-03-01T12:30:36.336Z,8.02
2023-03-01T12:33:28.381Z,8.05
2023-03-01T12:36:16.586Z,8.06
2023-03-01T12:38:51.339Z,8.07
2023-03-01T12:41:44.714Z,8.08
2023-03-01T12:44:35.793Z,8.11
2023-03-01T12:47:14.788Z,8.10
2023-03-01T12:49:59.017Z,8.13
2023-03-01T12:52:44.949Z,8.15
2023-03-01T12:55:32.090Z,8.19
2023-03-01T12:58:10.588Z,8.23
2023-03-01T13:00:46.569Z,8.25
2023-03-01T13:03:37.219Z,8.30
2023-03-01T13:06:43.385Z,8.35
2023-03-01T13:09:38.953Z,8.43
2023-03-01T13:12:43.380Z,8.51
2023-03-01T13:15:25.045Z,8.57
2023-03-01T13:17:53.901Z,8.62
2023-03-01T13:20:24.590Z,8.64
2023-03-01T13:23:03.792Z,8.66
2023-03-01T13:25:37.641Z,8.68
2023-03-01T13:28:36.346Z,8.72
2023-03-01T13:31:04.693Z,8.75
2023-03-01T13:33:30.953Z,8.78
2023-03-01T13:36:01.690Z,8.82
2023-03-01T13:38:49.420Z,8.87
2023-03-01T13:41:36.558Z,8.91
2023-03-01T13:44:12.619Z,8.95
2023-03-01T13:46:39.357Z,8.96
2023-03-01T13:49:05.775Z,8.98
2023-03-01T13:51:32.227Z,8.99
2023-03-01T13:54:00.101Z,9.00
2023-03-01T13:56:30.444Z,9.00
2023-03-01T13:59:05.255Z,9.00
2023-03-01T14:01:35.138Z,8.99
2023-03-01T14:04:03.418Z,8.99
2023-03-01T14:06:32.749Z,8.99
2023-03-01T14:09:21.769Z,8.99
2023-03-01T14:11:57.393Z,8.95
2023-03-01T14:14:47.601Z,8.93
2023-03-01T14:18:11.220Z,8.91
2023-03-01T14:20:43.292Z,8.90
2023-03-01T14:23:20.441Z,8.87
2023-03-01T14:25:50.090Z,8.87
2023-03-01T14:28:27.363Z,8.86
2023-03-01T14:30:56.314Z,8.85
2023-03-01T14:33:42.066Z,8.85
2023-03-01T14:36:12.781Z,8.85
2023-03-01T14:38:44.640Z,8.85
2023-03-01T14:41:19.729Z,8.85
2023-03-01T14:44:01.633Z,8.83
2023-03-01T14:46:33.726Z,8.84
2023-03-01T14:49:12.789Z,8.85
2023-03-01T14:51:41.548Z,8.84
2023-03-01T14:54:22.997Z,8.85
2023-03-01T14:56:49.386Z,8.85
2023-03-01T14:59:15.704Z,8.85
2023-03-01T15:01:42.873Z,8.85
2023-03-01T15:04:13.670Z,8.87
2023-03-01T15:06:40.671Z,8.87
2023-03-01T15:09:11.899Z,8.86
2023-03-01T15:11:42.001Z,8.87
2023-03-01T15:14:28.369Z,8.88
2023-03-01T15:16:55.140Z,8.92
2023-03-01T15:19:24.686Z,8.90
2023-03-01T15:21:51.287Z,8.90
2023-03-01T15:24:23.621Z,8.89
2023-03-01T15:26:58.401Z,8.86
2023-03-01T15:29:30.730Z,8.84
2023-03-01T15:32:25.068Z,8.81
2023-03-01T15:34:51.849Z,8.79
2023-03-01T15:37:40.017Z,8.78
2023-03-01T15:40:32.290Z,8.77
2023-03-01T15:43:07.773Z,8.78
2023-03-01T15:45:34.997Z,8.77
2023-03-01T15:48:15.203Z,8.75
2023-03-01T15:50:58.995Z,8.75
2023-03-01T15:53:25.536Z,8.72
2023-03-01T15:55:51.856Z,8.70
2023-03-01T15:58:21.477Z,8.70
2023-03-01T16:01:00.355Z,8.67
2023-03-01T16:03:27.519Z,8.64
2023-03-01T16:05:54.464Z,8.63
2023-03-01T16:08:20.862Z,8.60
2023-03-01T16:10:47.512Z,8.58
2023-03-01T16:13:14.933Z,8.56
2023-03-01T16:15:41.512Z,8.54
2023-03-01T16:18:08.887Z,8.54
2023-03-01T16:20:35.565Z,8.52
2023-03-01T16:23:04.963Z,8.50
2023-03-01T16:25:33.138Z,8.48
2023-03-01T16:28:01.791Z,8.46
2023-03-01T16:30:28.259Z,8.43
2023-03-01T16:32:54.681Z,8.42
2023-03-01T16:35:22.181Z,8.41
2023-03-01T16:37:49.188Z,8.37
2023-03-01T16:40:26.823Z,8.34
2023-03-01T16:42:54.371Z,8.31
2023-03-01T16:45:25.287Z,8.27
2023-03-01T16:47:55.525Z,8.25
2023-03-01T16:50:22.702Z,8.22
2023-03-01T16:52:49.214Z,8.17
2023-03-01T16:55:15.556Z,8.13
2023-03-01T16:57:41.911Z,8.09
2023-03-01T17:00:11.772Z,8.05
2023-03-01T17:02:38.555Z,8.00
2023-03-01T17:05:05.887Z,7.94
2023-03-01T17:07:35.057Z,7.86
2023-03-01T17:10:02.311Z,7.79
2023-03-01T17:12:29.353Z,7.72
2023-03-01T17:14:55.827Z,7.63
2023-03-01T17:17:22.779Z,7.57
2023-03-01T17:19:49.133Z,7.48
2023-03-01T17:22:16.158Z,7.40
2023-03-01T17:24:42.676Z,7.33
2023-03-01T17:27:09.876Z,7.26
2023-03-01T17:29:38.011Z,7.19
2023-03-01T17:32:05.440Z,7.13
2023-03-01T17:34:33.653Z,7.07
2023-03-01T17:37:00.691Z,6.99
2023-03-01T17:39:32.271Z,6.93
2023-03-01T17:41:59.065Z,6.87
2023-03-01T17:44:25.658Z,6.81
2023-03-01T17:46:52.076Z,6.73
2023-03-01T17:49:18.619Z,6.69
2023-03-01T17:51:45.592Z,6.63
2023-03-01T17:54:11.961Z,6.58
2023-03-01T17:56:38.790Z,6.51
2023-03-01T17:59:06.838Z,6.46
2023-03-01T18:01:35.640Z,6.42
2023-03-01T18:04:02.266Z,6.37
2023-03-01T18:06:29.391Z,6.32
2023-03-01T18:08:56.353Z,6.28
2023-03-01T18:11:24.924Z,6.25
2023-03-01T18:13:53.318Z,6.20
2023-03-01T18:16:21.301Z,6.17
2023-03-01T18:18:52.542Z,6.12
2023-03-01T18:21:19.365Z,6.09
2023-03-01T18:23:45.812Z,6.05
2023-03-01T18:26:15.544Z,6.01
2023-03-01T18:28:42.278Z,5.96
2023-03-01T18:31:13.492Z,5.92
2023-03-01T18:33:40.555Z,5.87
2023-03-01T18:36:17.456Z,5.83
2023-03-01T18:38:43.872Z,5.79
2023-03-01T18:41:10.340Z,5.74
2023-03-01T18:43:36.838Z,5.70
2023-03-01T18:46:05.328Z,5.66
2023-03-01T18:48:32.081Z,5.62
2023-03-01T18:51:07.702Z,5.59
2023-03-01T18:53:34.157Z,5.57
2023-03-01T18:56:02.043Z,5.52
2023-03-01T18:58:28.794Z,5.51
2023-03-01T19:00:55.157Z,5.48
2023-03-01T19:03:21.633Z,5.47
2023-03-01T19:05:48.066Z,5.45
2023-03-01T19:08:14.506Z,5.43
2023-03-01T19:10:40.854Z,5.41
2023-03-01T19:13:07.255Z,5.39
2023-03-01T19:15:33.755Z,5.39
2023-03-01T19:18:01.573Z,5.37
2023-03-01T19:20:27.916Z,5.35
2023-03-01T19:22:54.315Z,5.33
2023-03-01T19:25:21.006Z,5.30
2023-03-01T19:27:49.071Z,5.28
2023-03-01T19:30:15.903Z,5.24
2023-03-01T19:32:42.352Z,5.23
2023-03-01T19:35:08.860Z,5.19
2023-03-01T19:37:35.405Z,5.16
2023-03-01T19:40:01.934Z,5.15
2023-03-01T19:42:28.532Z,5.13
2023-03-01T19:44:55.214Z,5.11
2023-03-01T19:47:21.582Z,5.09
2023-03-01T19:49:47.996Z,5.07
2023-03-01T19:52:14.397Z,5.05
2023-03-01T19:54:40.846Z,5.04
2023-03-01T19:57:07.482Z,5.02
2023-03-01T19:59:33.930Z,4.98
2023-03-01T20:02:00.418Z,4.96
2023-03-01T20:04:26.887Z,4.94
2023-03-01T20:06:53.273Z,4.91
2023-03-01T20:09:22.075Z,4.87
2023-03-01T20:11:49.754Z,4.84
2023-03-01T20:14:16.315Z,4.81
2023-03-01T20:16:42.735Z,4.76
2023-03-01T20:19:09.171Z,4.73
2023-03-01T20:21:35.556Z,4.68
2023-03-01T20:24:02.278Z,4.66
2023-03-01T20:26:29.216Z,4.62
2023-03-01T20:28:57.177Z,4.58
2023-03-01T20:31:29.864Z,4.54
2023-03-01T20:33:58.173Z,4.50
2023-03-01T20:36:24.603Z,4.45
2023-03-01T20:38:54.674Z,4.40
2023-03-01T20:41:21.244Z,4.35
2023-03-01T20:43:54.944Z,4.32
2023-03-01T20:46:23.665Z,4.27
2023-03-01T20:48:51.609Z,4.22
2023-03-01T20:51:18.526Z,4.18
2023-03-01T20:53:45.061Z,4.15
2023-03-01T20:56:14.544Z,4.12
2023-03-01T20:58:41.793Z,4.07
2023-03-01T21:01:09.345Z,4.04
2023-03-01T21:03:36.243Z,4.00
2023-03-01T21:06:06.042Z,3.96
2023-03-01T21:08:33.461Z,3.92
2023-03-01T21:10:59.810Z,3.89
2023-03-01T21:13:27.349Z,3.87
2023-03-01T21:15:59.958Z,3.87
2023-03-01T21:18:29.650Z,3.86
2023-03-01T21:21:10.558Z,3.87
2023-03-01T21:23:39.294Z,3.87
2023-03-01T21:26:13.284Z,3.87
2023-03-01T21:28:40.952Z,3.87
2023-03-01T21:31:37.178Z,3.87
2023-03-01T21:34:05.741Z,3.87
2023-03-01T21:36:33.491Z,3.83
2023-03-01T21:39:05.254Z,3.80
2023-03-01T21:41:34.150Z,3.78
2023-03-01T21:44:02.936Z,3.75
2023-03-01T21:46:31.758Z,3.73
2023-03-01T21:48:58.662Z,3.70
2023-03-01T21:51:27.140Z,3.68
2023-03-01T21:54:01.088Z,3.67
2023-03-01T21:56:31.564Z,3.65
2023-03-01T21:58:58.631Z,3.63
2023-03-01T22:01:29.518Z,3.62
2023-03-01T22:03:58.136Z,3.60
2023-03-01T22:06:28.914Z,3.58
2023-03-01T22:09:01.031Z,3.56
2023-03-01T22:11:28.272Z,3.54
2023-03-01T22:13:56.272Z,3.51
2023-03-01T22:16:35.398Z,3.49
2023-03-01T22:19:03.453Z,3.49
2023-03-01T22:21:30.097Z,3.48
2023-03-01T22:23:56.745Z,3.47
2023-03-01T22:26:29.787Z,3.46
2023-03-01T22:28:58.274Z,3.46
2023-03-01T22:31:25.922Z,3.46
2023-03-01T22:33:53.683Z,3.45
2023-03-01T22:36:20.110Z,3.46
2023-03-01T22:38:46.871Z,3.46
2023-03-01T22:41:13.723Z,3.46
2023-03-01T22:43:40.213Z,3.45
2023-03-01T22:46:11.423Z,3.45
2023-03-01T22:48:38.093Z,3.45
2023-03-01T22:51:05.123Z,3.44
2023-03-01T22:53:31.724Z,3.44
2023-03-01T22:55:58.178Z,3.42
2023-03-01T22:58:24.535Z,3.40
2023-03-01T23:00:50.896Z,3.40
2023-03-01T23:03:17.864Z,3.38
2023-03-01T23:05:44.288Z,3.35
2023-03-01T23:08:10.708Z,3.33
2023-03-01T23:10:40.732Z,3.32
2023-03-01T23:13:07.132Z,3.28
2023-03-01T23:15:33.492Z,3.27
2023-03-01T23:18:00.462Z,3.22
2023-03-01T23:20:26.832Z,3.21
2023-03-01T23:22:53.142Z,3.18
2023-03-01T23:25:19.457Z,3.17
2023-03-01T23:27:45.765Z,3.15
2023-03-01T23:30:12.417Z,3.15
2023-03-01T23:32:40.353Z,3.14
2023-03-01T23:35:09.188Z,3.12
2023-03-01T23:37:35.559Z,3.10
2023-03-01T23:40:02.110Z,3.07
2023-03-01T23:42:28.469Z,3.06
2023-03-01T23:44:54.813Z,3.05
2023-03-01T23:47:21.140Z,3.03
2023-03-01T23:49:50.279Z,3.03
2023-03-01T23:52:17.285Z,3.01
2023-03-01T23:54:44.331Z,3.00
2023-03-01T23:57:10.630Z,2.99
2023-03-01T23:59:36.994Z,2.97
